Time;durP1;ratioP1;P1;durP2;ratioP2;P2;SDS_P1;SDS_P2;PMS_P1;PMS_P2;Temp;Humidity;BMP_temperature;BMP_pressure;BME280_temperature;BME280_humidity;BME280_pressure;Samples;Min_cycle;Max_cycle;Signal;HPM_P1;HPM_P2
2022/04/28 00:00:02;;;;;;;0.30;0.30;;;;;;;;;;6255789;22;20098;-87
2022/04/28 00:02:28;;;;;;;0.40;0.40;;;;;;;;;;6255260;22;20098;-87
2022/04/28 00:04:56;;;;;;;0.35;0.35;;;;;;;;;;6256169;22;20094;-87
2022/04/28 00:07:22;;;;;;;0.30;0.30;;;;;;;;;;6254816;22;20065;-87
2022/04/28 00:09:48;;;;;;;0.30;0.30;;;;;;;;;;6256051;22;20012;-87
2022/04/28 00:12:14;;;;;;;0.40;0.40;;;;;;;;;;6282059;22;20468;-87
2022/04/28 00:14:43;;;;;;;0.30;0.30;;;;;;;;;;6256613;22;20019;-87
2022/04/28 00:17:10;;;;;;;2.45;2.28;;;;;;;;;;6282224;22;20015;-87
2022/04/28 00:19:36;;;;;;;0.30;0.30;;;;;;;;;;6256102;22;20023;-87
2022/04/28 00:22:03;;;;;;;0.55;0.50;;;;;;;;;;6256256;22;20018;-88
2022/04/28 00:24:29;;;;;;;0.30;0.30;;;;;;;;;;6256245;22;20023;-87
2022/04/28 00:26:55;;;;;;;0.40;0.40;;;;;;;;;;6255884;22;20069;-87
2022/04/28 00:29:21;;;;;;;0.30;0.30;;;;;;;;;;6256035;22;20098;-88
2022/04/28 00:31:48;;;;;;;0.60;0.60;;;;;;;;;;6257366;22;20015;-88
2022/04/28 00:34:14;;;;;;;0.30;0.30;;;;;;;;;;6258827;22;20019;-87
2022/04/28 00:36:41;;;;;;;0.40;0.40;;;;;;;;;;6258454;22;20011;-87
2022/04/28 00:39:07;;;;;;;0.30;0.30;;;;;;;;;;6258925;22;20301;-87
2022/04/28 00:41:33;;;;;;;0.30;0.30;;;;;;;;;;6283686;22;20015;-87
2022/04/28 00:44:00;;;;;;;0.30;0.30;;;;;;;;;;6257779;22;20443;-88
2022/04/28 00:46:26;;;;;;;0.40;0.40;;;;;;;;;;6257556;22;20017;-87
2022/04/28 00:51:37;;;;;;;0.40;0.40;;;;;;;;;;6283072;22;20098;-87
2022/04/28 00:54:04;;;;;;;0.35;0.35;;;;;;;;;;6257141;22;20061;-86
2022/04/28 00:56:30;;;;;;;0.30;0.30;;;;;;;;;;6257048;22;20041;-87
2022/04/28 00:58:58;;;;;;;0.50;0.50;;;;;;;;;;6257595;22;20069;-86
2022/04/28 01:01:24;;;;;;;0.70;0.70;;;;;;;;;;6256455;22;20015;-86
2022/04/28 01:03:50;;;;;;;0.50;0.50;;;;;;;;;;6257205;22;20457;-87
2022/04/28 01:06:16;;;;;;;5.60;1.85;;;;;;;;;;6257977;22;20021;-87
2022/04/28 01:08:42;;;;;;;0.90;0.80;;;;;;;;;;6257456;22;20023;-87
2022/04/28 01:11:10;;;;;;;0.40;0.40;;;;;;;;;;6257522;22;20073;-88
2022/04/28 01:13:36;;;;;;;0.38;0.38;;;;;;;;;;6283345;22;20013;-86
2022/04/28 01:16:02;;;;;;;4.47;2.53;;;;;;;;;;6257184;22;20459;-87
2022/04/28 01:18:28;;;;;;;2.92;1.58;;;;;;;;;;6257804;22;20086;-87
2022/04/28 01:20:54;;;;;;;3.30;0.95;;;;;;;;;;6232978;22;20023;-87
2022/04/28 01:23:20;;;;;;;0.70;0.70;;;;;;;;;;6257618;22;20038;-87
2022/04/28 01:25:46;;;;;;;0.40;0.40;;;;;;;;;;6258033;22;20019;-86
2022/04/28 01:28:13;;;;;;;0.98;0.90;;;;;;;;;;6257448;22;20449;-86
2022/04/28 01:30:39;;;;;;;0.75;0.57;;;;;;;;;;6257691;22;20011;-86
2022/04/28 01:33:05;;;;;;;0.30;0.30;;;;;;;;;;6232282;22;20452;-87
2022/04/28 01:35:32;;;;;;;0.65;0.65;;;;;;;;;;6256629;22;20090;-87
2022/04/28 01:37:58;;;;;;;0.40;0.40;;;;;;;;;;6256990;22;20058;-87
2022/04/28 01:40:24;;;;;;;0.30;0.30;;;;;;;;;;6282506;22;20015;-87
2022/04/28 01:42:50;;;;;;;0.30;0.30;;;;;;;;;;6257036;22;20050;-87
2022/04/28 01:45:17;;;;;;;0.65;0.65;;;;;;;;;;6282295;22;20015;-87
2022/04/28 01:47:43;;;;;;;0.45;0.45;;;;;;;;;;6257476;22;20011;-88
2022/04/28 01:50:10;;;;;;;2.28;1.75;;;;;;;;;;6256966;22;20011;-85
2022/04/28 01:55:21;;;;;;;0.30;0.30;;;;;;;;;;6261525;22;20097;-88
2022/04/28 01:57:47;;;;;;;0.60;0.60;;;;;;;;;;6256761;22;20019;-86
2022/04/28 02:00:14;;;;;;;0.40;0.40;;;;;;;;;;6256746;22;20073;-87
2022/04/28 02:02:40;;;;;;;0.40;0.40;;;;;;;;;;6256175;22;20026;-87
2022/04/28 02:05:07;;;;;;;0.77;0.77;;;;;;;;;;6256996;22;20015;-87
2022/04/28 02:07:33;;;;;;;0.40;0.40;;;;;;;;;;6256429;22;20015;-86
2022/04/28 02:09:59;;;;;;;0.40;0.40;;;;;;;;;;6256624;22;20510;-87
2022/04/28 02:12:26;;;;;;;0.40;0.40;;;;;;;;;;6282495;22;20034;-86
2022/04/28 02:14:53;;;;;;;0.28;0.28;;;;;;;;;;6257184;22;20326;-87
2022/04/28 02:17:19;;;;;;;0.32;0.32;;;;;;;;;;6256627;22;20015;-86
2022/04/28 02:19:47;;;;;;;0.30;0.30;;;;;;;;;;6256322;22;20022;-87
2022/04/28 02:22:13;;;;;;;0.30;0.30;;;;;;;;;;6256596;22;20082;-87
2022/04/28 02:24:39;;;;;;;0.45;0.43;;;;;;;;;;6257434;22;20068;-88
2022/04/28 02:27:05;;;;;;;0.40;0.40;;;;;;;;;;6231333;22;20054;-87
2022/04/28 02:29:32;;;;;;;0.95;0.80;;;;;;;;;;6256801;22;20015;-87
2022/04/28 02:31:58;;;;;;;1.92;1.20;;;;;;;;;;6232307;22;20017;-87
2022/04/28 02:34:24;;;;;;;0.80;0.50;;;;;;;;;;6257078;22;20487;-88
2022/04/28 02:36:51;;;;;;;0.82;0.65;;;;;;;;;;6256894;22;20011;-87
2022/04/28 02:39:18;;;;;;;0.32;0.32;;;;;;;;;;6256686;22;20011;-88
2022/04/28 02:41:45;;;;;;;0.35;0.35;;;;;;;;;;6281848;22;20022;-87
2022/04/28 02:44:14;;;;;;;0.40;0.40;;;;;;;;;;6256762;22;20087;-87
2022/04/28 02:46:42;;;;;;;0.40;0.40;;;;;;;;;;6255872;22;20456;-87
2022/04/28 02:49:09;;;;;;;0.70;0.70;;;;;;;;;;6256781;22;20372;-86
2022/04/28 02:51:35;;;;;;;5.40;3.00;;;;;;;;;;6256810;22;20011;-88
2022/04/28 02:54:01;;;;;;;0.73;0.65;;;;;;;;;;6256295;22;20033;-87
2022/04/28 02:56:27;;;;;;;1.25;0.98;;;;;;;;;;6255657;22;20015;-87
2022/04/28 02:58:53;;;;;;;0.40;0.40;;;;;;;;;;6256576;22;20011;-87
2022/04/28 03:01:20;;;;;;;0.60;0.60;;;;;;;;;;6255930;22;20019;-86
2022/04/28 03:03:46;;;;;;;0.30;0.30;;;;;;;;;;6256280;22;20046;-87
2022/04/28 03:11:44;;;;;;;0.30;0.30;;;;;;;;;;6281924;22;20053;-86
2022/04/28 03:14:12;;;;;;;1.17;0.85;;;;;;;;;;6256311;22;20007;-88
2022/04/28 03:16:38;;;;;;;0.50;0.50;;;;;;;;;;6281615;22;20015;-87
2022/04/28 03:19:05;;;;;;;2.00;1.27;;;;;;;;;;6255946;22;20463;-87
2022/04/28 03:21:31;;;;;;;1.67;1.13;;;;;;;;;;6256509;22;20019;-87
2022/04/28 03:23:57;;;;;;;0.40;0.40;;;;;;;;;;6255674;22;20030;-87
2022/04/28 03:26:23;;;;;;;0.30;0.30;;;;;;;;;;6230609;22;20016;-87
2022/04/28 03:28:50;;;;;;;0.40;0.40;;;;;;;;;;6255774;22;20093;-86
2022/04/28 03:31:16;;;;;;;0.38;0.38;;;;;;;;;;6256129;22;20018;-86
2022/04/28 03:33:42;;;;;;;0.70;0.63;;;;;;;;;;6281474;22;20065;-87
2022/04/28 03:38:53;;;;;;;0.73;0.65;;;;;;;;;;6281040;22;20026;-87
2022/04/28 03:41:19;;;;;;;0.45;0.45;;;;;;;;;;6280522;22;20027;-86
2022/04/28 03:43:54;;;;;;;0.73;0.73;;;;;;;;;;6309458;22;20065;-87
2022/04/28 03:46:20;;;;;;;3.65;1.70;;;;;;;;;;6255628;22;20027;-87
2022/04/28 03:48:48;;;;;;;2.13;1.17;;;;;;;;;;6230704;22;20039;-87
2022/04/28 03:51:14;;;;;;;2.45;1.20;;;;;;;;;;6255881;22;20437;-87
2022/04/28 03:53:40;;;;;;;0.30;0.30;;;;;;;;;;6255999;22;20172;-87
2022/04/28 03:56:07;;;;;;;0.30;0.30;;;;;;;;;;6256262;22;20097;-87
2022/04/28 03:58:33;;;;;;;0.38;0.38;;;;;;;;;;6256481;22;20011;-87
2022/04/28 04:00:59;;;;;;;0.60;0.60;;;;;;;;;;6256388;22;20476;-87
2022/04/28 04:03:25;;;;;;;0.40;0.40;;;;;;;;;;6255233;22;20015;-88
2022/04/28 04:05:51;;;;;;;0.35;0.35;;;;;;;;;;6281036;22;20034;-88
2022/04/28 04:08:17;;;;;;;0.20;0.20;;;;;;;;;;6257427;22;20424;-87
2022/04/28 04:10:43;;;;;;;0.95;0.93;;;;;;;;;;6257755;22;20051;-87
2022/04/28 04:13:09;;;;;;;0.30;0.30;;;;;;;;;;6257645;22;20068;-87
2022/04/28 04:15:35;;;;;;;0.30;0.30;;;;;;;;;;6280993;22;20015;-87
2022/04/28 04:18:02;;;;;;;0.40;0.40;;;;;;;;;;6231480;22;20019;-87
2022/04/28 04:20:28;;;;;;;0.30;0.30;;;;;;;;;;6257187;22;20019;-87
2022/04/28 04:22:55;;;;;;;0.40;0.40;;;;;;;;;;6257211;22;20018;-88
2022/04/28 04:25:21;;;;;;;0.30;0.30;;;;;;;;;;6257416;22;20019;-88
2022/04/28 04:27:47;;;;;;;3.50;1.40;;;;;;;;;;6257204;22;20026;-86
2022/04/28 04:32:58;;;;;;;0.30;0.30;;;;;;;;;;6282667;22;20522;-86
2022/04/28 04:35:24;;;;;;;5.18;2.70;;;;;;;;;;6282665;22;20015;-87
2022/04/28 04:37:52;;;;;;;0.40;0.40;;;;;;;;;;6282326;22;20255;-86
2022/04/28 04:40:19;;;;;;;0.30;0.30;;;;;;;;;;6256596;22;20405;-86
2022/04/28 04:42:45;;;;;;;1.10;1.00;;;;;;;;;;6256569;22;20087;-88
2022/04/28 04:45:11;;;;;;;0.40;0.40;;;;;;;;;;6256966;22;20022;-87
2022/04/28 04:47:37;;;;;;;0.30;0.30;;;;;;;;;;6256646;22;20472;-87
2022/04/28 04:50:04;;;;;;;0.30;0.30;;;;;;;;;;6281295;22;20333;-87
2022/04/28 04:52:31;;;;;;;0.30;0.30;;;;;;;;;;6256830;22;20011;-88
2022/04/28 04:54:57;;;;;;;0.40;0.40;;;;;;;;;;6256546;22;20042;-87
2022/04/28 04:57:23;;;;;;;0.40;0.40;;;;;;;;;;6256580;22;20050;-86
2022/04/28 04:59:49;;;;;;;0.30;0.30;;;;;;;;;;6281542;22;20095;-88
2022/04/28 05:02:15;;;;;;;0.40;0.40;;;;;;;;;;6257423;22;20461;-87
2022/04/28 05:04:41;;;;;;;0.30;0.30;;;;;;;;;;6256929;22;20026;-87
2022/04/28 05:07:07;;;;;;;0.30;0.30;;;;;;;;;;6256729;22;20011;-87
2022/04/28 05:09:33;;;;;;;0.30;0.30;;;;;;;;;;6256657;22;20440;-86
2022/04/28 05:11:59;;;;;;;0.40;0.40;;;;;;;;;;6256781;22;20019;-87
2022/04/28 05:14:25;;;;;;;3.42;2.40;;;;;;;;;;6256382;22;20353;-87
2022/04/28 05:16:53;;;;;;;0.30;0.30;;;;;;;;;;6256743;22;20039;-87
2022/04/28 05:19:19;;;;;;;0.30;0.30;;;;;;;;;;6255745;22;20046;-87
2022/04/28 05:21:45;;;;;;;0.30;0.30;;;;;;;;;;6256559;22;20011;-87
2022/04/28 05:24:11;;;;;;;0.30;0.30;;;;;;;;;;6256655;22;20449;-86
2022/04/28 05:26:39;;;;;;;0.30;0.30;;;;;;;;;;6256293;22;20011;-87
2022/04/28 05:29:06;;;;;;;0.30;0.30;;;;;;;;;;6256575;22;20012;-87
2022/04/28 05:31:32;;;;;;;0.30;0.30;;;;;;;;;;6256894;22;20015;-87
2022/04/28 05:33:58;;;;;;;0.30;0.30;;;;;;;;;;6256886;22;20022;-87
2022/04/28 05:36:24;;;;;;;0.38;0.38;;;;;;;;;;6256456;22;20093;-88
2022/04/28 05:38:50;;;;;;;0.40;0.40;;;;;;;;;;6256011;22;20015;-87
2022/04/28 05:41:16;;;;;;;0.68;0.65;;;;;;;;;;6256647;22;20498;-87
2022/04/28 05:46:27;;;;;;;3.92;1.15;;;;;;;;;;6281975;22;20050;-87
2022/04/28 05:48:53;;;;;;;0.30;0.30;;;;;;;;;;6256111;22;20018;-88
2022/04/28 05:51:21;;;;;;;0.30;0.30;;;;;;;;;;6256041;22;20034;-88
2022/04/28 05:53:46;;;;;;;0.20;0.20;;;;;;;;;;6256162;22;20018;-86
2022/04/28 05:56:13;;;;;;;0.13;0.13;;;;;;;;;;6256545;22;20015;-86
2022/04/28 05:58:39;;;;;;;0.20;0.20;;;;;;;;;;6282144;22;20022;-87
2022/04/28 06:01:07;;;;;;;0.32;0.32;;;;;;;;;;6256624;22;20057;-87
2022/04/28 06:03:34;;;;;;;0.30;0.30;;;;;;;;;;6231190;22;20011;-87
2022/04/28 06:06:00;;;;;;;0.30;0.30;;;;;;;;;;6256420;22;20094;-88
2022/04/28 06:08:26;;;;;;;0.57;0.50;;;;;;;;;;6255935;22;20050;-87
2022/04/28 06:10:52;;;;;;;0.30;0.30;;;;;;;;;;6256715;22;20022;-88
2022/04/28 06:13:19;;;;;;;0.20;0.20;;;;;;;;;;6256940;22;20018;-88
2022/04/28 06:15:45;;;;;;;0.45;0.45;;;;;;;;;;6231406;22;20086;-87
2022/04/28 06:18:14;;;;;;;0.30;0.30;;;;;;;;;;6282737;22;20441;-87
2022/04/28 06:20:41;;;;;;;0.95;0.95;;;;;;;;;;6255486;22;20015;-87
2022/04/28 06:23:07;;;;;;;0.30;0.30;;;;;;;;;;6255087;22;20352;-87
2022/04/28 06:25:34;;;;;;;0.15;0.15;;;;;;;;;;6255240;22;20042;-87
2022/04/28 06:28:00;;;;;;;0.30;0.30;;;;;;;;;;6255475;22;20457;-87
2022/04/28 06:30:26;;;;;;;0.40;0.40;;;;;;;;;;6255373;22;20349;-87
2022/04/28 06:32:52;;;;;;;0.32;0.32;;;;;;;;;;6280917;22;20007;-87
2022/04/28 06:35:18;;;;;;;0.88;0.57;;;;;;;;;;6255303;22;20086;-88
2022/04/28 06:37:45;;;;;;;0.60;0.50;;;;;;;;;;6280801;22;20021;-86
2022/04/28 06:40:12;;;;;;;0.43;0.43;;;;;;;;;;6255442;22;20022;-87
2022/04/28 06:42:39;;;;;;;0.30;0.30;;;;;;;;;;6256142;22;20015;-87
2022/04/28 06:45:07;;;;;;;0.30;0.30;;;;;;;;;;6255853;22;20019;-87
2022/04/28 06:47:33;;;;;;;0.30;0.30;;;;;;;;;;6255402;22;20011;-88
2022/04/28 06:49:59;;;;;;;0.30;0.30;;;;;;;;;;6255283;22;20042;-88
2022/04/28 06:52:25;;;;;;;0.30;0.30;;;;;;;;;;6255255;22;20437;-87
2022/04/28 06:54:54;;;;;;;0.30;0.30;;;;;;;;;;6253553;22;20445;-88
2022/04/28 06:57:20;;;;;;;0.20;0.20;;;;;;;;;;6254298;22;20069;-88
2022/04/28 06:59:46;;;;;;;0.40;0.40;;;;;;;;;;6255106;22;20437;-87
2022/04/28 07:02:14;;;;;;;0.20;0.20;;;;;;;;;;6253865;22;20015;-88
2022/04/28 07:04:40;;;;;;;0.32;0.32;;;;;;;;;;6254804;22;20019;-88
2022/04/28 07:07:06;;;;;;;3.08;1.23;;;;;;;;;;6254619;22;20015;-87
2022/04/28 07:09:32;;;;;;;0.30;0.30;;;;;;;;;;6255006;22;20019;-88
2022/04/28 07:11:58;;;;;;;0.38;0.38;;;;;;;;;;6255354;22;20333;-87
2022/04/28 07:14:24;;;;;;;0.30;0.30;;;;;;;;;;6255027;22;20015;-87
2022/04/28 07:16:50;;;;;;;0.45;0.45;;;;;;;;;;6254883;22;20026;-87
2022/04/28 07:19:16;;;;;;;0.30;0.30;;;;;;;;;;6255196;22;20011;-87
2022/04/28 07:21:41;;;;;;;0.20;0.20;;;;;;;;;;6254619;22;20015;-88
2022/04/28 07:24:08;;;;;;;6.22;2.20;;;;;;;;;;6255015;22;20015;-87
2022/04/28 07:26:34;;;;;;;4.90;2.38;;;;;;;;;;6254914;22;20011;-86
2022/04/28 07:29:00;;;;;;;2.45;1.05;;;;;;;;;;6254623;22;20049;-87
2022/04/28 07:31:26;;;;;;;2.28;1.15;;;;;;;;;;6254874;22;20007;-87
2022/04/28 07:33:52;;;;;;;1.65;0.75;;;;;;;;;;6280146;22;20510;-87
2022/04/28 07:36:18;;;;;;;0.82;0.60;;;;;;;;;;6254732;22;20011;-88
2022/04/28 07:38:44;;;;;;;2.90;2.28;;;;;;;;;;6254897;22;20023;-88
2022/04/28 07:41:12;;;;;;;11.70;3.05;;;;;;;;;;6255070;22;20068;-87
2022/04/28 07:43:38;;;;;;;1.75;1.13;;;;;;;;;;6257257;22;20015;-87
2022/04/28 07:46:04;;;;;;;1.55;0.95;;;;;;;;;;6256774;22;20051;-87
2022/04/28 07:48:30;;;;;;;2.15;1.33;;;;;;;;;;6256974;22;20062;-88
2022/04/28 07:50:56;;;;;;;0.30;0.30;;;;;;;;;;6256588;22;20015;-88
2022/04/28 07:53:22;;;;;;;4.45;2.05;;;;;;;;;;6256972;22;20349;-87
2022/04/28 07:56:10;;;;;;;4.47;2.20;;;;;;;;;;6256857;22;20403;-87
2022/04/28 07:58:34;;;;;;;2.67;1.38;;;;;;;;;;6282386;22;20034;-87
2022/04/28 08:01:00;;;;;;;9.00;2.38;;;;;;;;;;6256627;22;20022;-88
2022/04/28 08:03:26;;;;;;;1.48;0.77;;;;;;;;;;6257479;22;20019;-88
2022/04/28 08:05:53;;;;;;;0.75;0.65;;;;;;;;;;6256812;22;20015;-86
2022/04/28 08:08:20;;;;;;;0.30;0.30;;;;;;;;;;6282173;22;20019;-87
2022/04/28 08:10:46;;;;;;;0.28;0.28;;;;;;;;;;6256064;22;20011;-87
2022/04/28 08:13:12;;;;;;;0.20;0.20;;;;;;;;;;6256824;22;20015;-88
2022/04/28 08:15:38;;;;;;;1.98;1.02;;;;;;;;;;6280603;22;20018;-88
2022/04/28 08:18:04;;;;;;;2.78;1.70;;;;;;;;;;6255478;22;20073;-88
2022/04/28 08:20:31;;;;;;;5.10;1.48;;;;;;;;;;6256337;22;20019;-88
2022/04/28 08:22:57;;;;;;;3.40;1.38;;;;;;;;;;6256564;22;20019;-88
2022/04/28 08:25:23;;;;;;;1.90;1.10;;;;;;;;;;6256330;22;20015;-88
2022/04/28 08:27:49;;;;;;;1.35;0.80;;;;;;;;;;6256128;22;20015;-87
2022/04/28 08:30:15;;;;;;;2.10;0.73;;;;;;;;;;6256302;22;20017;-87
2022/04/28 08:32:41;;;;;;;5.47;1.55;;;;;;;;;;6256252;22;20076;-87
2022/04/28 08:35:08;;;;;;;11.02;1.75;;;;;;;;;;6282004;22;20015;-88
2022/04/28 08:37:36;;;;;;;9.10;3.08;;;;;;;;;;6256238;22;20019;-87
2022/04/28 08:40:02;;;;;;;5.85;2.03;;;;;;;;;;6256425;22;20015;-87
2022/04/28 08:42:28;;;;;;;6.90;1.80;;;;;;;;;;6256310;22;20441;-88
2022/04/28 08:45:00;;;;;;;8.98;2.28;;;;;;;;;;6256220;22;20076;-88
2022/04/28 08:47:26;;;;;;;2.83;1.35;;;;;;;;;;6256897;22;20456;-87
2022/04/28 08:49:52;;;;;;;5.88;2.40;;;;;;;;;;6256883;22;20024;-87
2022/04/28 08:52:19;;;;;;;2.33;1.23;;;;;;;;;;6256705;22;20054;-87
2022/04/28 08:54:46;;;;;;;3.20;2.00;;;;;;;;;;6231279;22;20012;-87
2022/04/28 08:57:13;;;;;;;7.38;1.88;;;;;;;;;;6256462;22;20015;-87
2022/04/28 08:59:39;;;;;;;3.40;1.30;;;;;;;;;;6256195;22;20460;-86
2022/04/28 09:02:06;;;;;;;9.82;1.48;;;;;;;;;;6256032;22;20022;-87
2022/04/28 09:04:35;;;;;;;6.13;2.17;;;;;;;;;;6255787;22;20019;-87
2022/04/28 09:07:01;;;;;;;7.03;1.30;;;;;;;;;;6255977;22;20438;-87
2022/04/28 09:09:28;;;;;;;3.58;1.00;;;;;;;;;;6257032;22;20324;-88
2022/04/28 09:11:57;;;;;;;2.92;1.23;;;;;;;;;;6256770;22;20038;-87
2022/04/28 09:14:24;;;;;;;0.30;0.30;;;;;;;;;;6256895;22;20017;-87
2022/04/28 09:16:54;;;;;;;5.35;1.73;;;;;;;;;;6256074;22;20015;-87
2022/04/28 09:19:33;;;;;;;2.97;0.93;;;;;;;;;;6256654;22;20011;-87
2022/04/28 09:22:01;;;;;;;2.13;1.00;;;;;;;;;;6256270;22;20022;-87
2022/04/28 09:24:28;;;;;;;0.50;0.50;;;;;;;;;;6256005;22;20015;-87
2022/04/28 09:26:57;;;;;;;7.75;2.10;;;;;;;;;;6256852;22;20072;-88
2022/04/28 09:29:25;;;;;;;0.57;0.45;;;;;;;;;;6256313;22;20361;-88
2022/04/28 09:31:54;;;;;;;0.38;0.38;;;;;;;;;;6256722;22;20050;-87
2022/04/28 09:34:22;;;;;;;3.88;2.05;;;;;;;;;;6256124;22;20015;-87
2022/04/28 09:36:49;;;;;;;1.17;0.75;;;;;;;;;;6256617;22;20011;-88
2022/04/28 09:42:29;;;;;;;0.40;0.40;;;;;;;;;;6236014;22;20019;-88
2022/04/28 09:44:56;;;;;;;0.38;0.38;;;;;;;;;;6256785;22;20019;-88
2022/04/28 09:47:26;;;;;;;0.70;0.70;;;;;;;;;;6257364;22;20374;-89
2022/04/28 09:49:52;;;;;;;4.55;1.80;;;;;;;;;;6256606;22;20027;-88
2022/04/28 09:52:31;;;;;;;2.20;1.40;;;;;;;;;;6256374;22;20441;-88
2022/04/28 09:54:59;;;;;;;8.18;2.10;;;;;;;;;;6256895;22;20057;-87
2022/04/28 09:57:26;;;;;;;4.63;1.38;;;;;;;;;;6257193;22;20053;-88
2022/04/28 09:59:53;;;;;;;2.65;1.38;;;;;;;;;;6256661;22;20019;-87
2022/04/28 10:02:20;;;;;;;0.55;0.40;;;;;;;;;;6256931;22;20507;-87
2022/04/28 10:04:46;;;;;;;1.92;0.85;;;;;;;;;;6282354;22;20019;-87
2022/04/28 10:07:15;;;;;;;6.82;1.77;;;;;;;;;;6282093;22;20373;-88
2022/04/28 10:09:41;;;;;;;4.82;1.60;;;;;;;;;;6231326;22;20015;-86
2022/04/28 10:12:08;;;;;;;7.97;1.95;;;;;;;;;;6255847;22;20066;-87
2022/04/28 10:14:35;;;;;;;0.30;0.30;;;;;;;;;;6231119;22;20051;-87
2022/04/28 10:17:02;;;;;;;1.15;1.05;;;;;;;;;;6256835;22;20015;-88
2022/04/28 10:19:32;;;;;;;0.90;0.57;;;;;;;;;;6256911;22;20073;-87
2022/04/28 10:22:00;;;;;;;0.35;0.32;;;;;;;;;;6257486;22;20015;-86
2022/04/28 10:33:02;;;;;;;3.72;1.65;;;;;;;;;;6277944;22;20038;-87
2022/04/28 10:35:54;;;;;;;0.47;0.47;;;;;;;;;;6252628;22;20030;-87
2022/04/28 10:38:22;;;;;;;4.78;1.73;;;;;;;;;;6254154;22;20022;-88
2022/04/28 10:40:59;;;;;;;6.60;2.42;;;;;;;;;;6252262;22;20015;-88
2022/04/28 10:43:26;;;;;;;9.63;2.45;;;;;;;;;;6252138;22;20018;-86
2022/04/28 10:45:54;;;;;;;1.40;0.57;;;;;;;;;;6253523;22;20484;-88
2022/04/28 10:48:33;;;;;;;4.28;2.13;;;;;;;;;;6253179;22;20022;-88
2022/04/28 10:51:05;;;;;;;9.93;1.65;;;;;;;;;;6252851;22;20111;-88
2022/04/28 10:53:32;;;;;;;1.35;1.13;;;;;;;;;;6252895;22;20026;-87
2022/04/28 10:56:09;;;;;;;0.30;0.30;;;;;;;;;;6254167;22;20026;-88
2022/04/28 10:58:35;;;;;;;7.72;1.88;;;;;;;;;;6254243;22;20083;-88
2022/04/28 11:01:04;;;;;;;29.98;1.98;;;;;;;;;;6255539;22;20020;-87
2022/04/28 11:03:48;;;;;;;2.80;1.65;;;;;;;;;;6256956;22;20046;-88
2022/04/28 11:06:16;;;;;;;5.45;1.90;;;;;;;;;;6258579;22;20019;-88
2022/04/28 11:08:50;;;;;;;0.73;0.55;;;;;;;;;;6258314;22;20057;-88
2022/04/28 11:11:17;;;;;;;4.82;1.85;;;;;;;;;;6258195;22;20069;-88
2022/04/28 11:13:46;;;;;;;4.03;2.03;;;;;;;;;;6257352;22;20563;-88
2022/04/28 11:16:13;;;;;;;2.30;0.90;;;;;;;;;;6258043;22;20097;-87
2022/04/28 11:18:40;;;;;;;5.22;1.95;;;;;;;;;;6257870;22;20027;-89
2022/04/28 11:21:08;;;;;;;7.05;1.83;;;;;;;;;;6257095;22;20094;-88
2022/04/28 11:23:37;;;;;;;3.90;1.48;;;;;;;;;;6257405;22;20023;-88
2022/04/28 11:26:04;;;;;;;9.40;2.30;;;;;;;;;;6256636;22;20148;-88
2022/04/28 11:28:31;;;;;;;2.67;1.05;;;;;;;;;;6256345;22;20019;-88
2022/04/28 11:30:58;;;;;;;8.65;2.05;;;;;;;;;;6257091;22;20012;-89
2022/04/28 11:33:24;;;;;;;6.68;1.92;;;;;;;;;;6257483;22;20015;-88
2022/04/28 11:35:51;;;;;;;0.57;0.52;;;;;;;;;;6258624;22;20056;-89
2022/04/28 11:38:24;;;;;;;0.22;0.20;;;;;;;;;;6258703;22;20026;-88
2022/04/28 11:41:00;;;;;;;1.33;0.77;;;;;;;;;;6258772;22;20026;-88
2022/04/28 11:43:31;;;;;;;7.55;2.42;;;;;;;;;;6258537;22;20019;-87
2022/04/28 11:45:57;;;;;;;3.90;1.25;;;;;;;;;;6283959;22;20034;-87
2022/04/28 11:48:26;;;;;;;2.03;1.13;;;;;;;;;;6259129;22;20098;-88
2022/04/28 11:50:52;;;;;;;7.40;2.25;;;;;;;;;;6232849;22;20069;-89
2022/04/28 11:53:19;;;;;;;13.73;2.83;;;;;;;;;;6258779;22;20011;-91
2022/04/28 11:55:48;;;;;;;9.90;2.30;;;;;;;;;;6258335;22;20038;-88
2022/04/28 11:58:18;;;;;;;1.83;1.10;;;;;;;;;;6259422;22;20019;-89
2022/04/28 12:00:46;;;;;;;5.00;1.08;;;;;;;;;;6284558;22;20016;-88
2022/04/28 12:03:30;;;;;;;3.70;1.42;;;;;;;;;;6258661;22;20023;-87
2022/04/28 12:05:56;;;;;;;5.00;1.50;;;;;;;;;;6257336;22;20345;-87
2022/04/28 12:08:25;;;;;;;7.63;1.83;;;;;;;;;;6283030;22;20042;-88
2022/04/28 12:19:19;;;;;;;5.97;1.55;;;;;;;;;;6283913;22;20019;-88
2022/04/28 12:19:23;;;;;;;6.75;1.90;;;;;;;;;;6262482;22;20023;-88
2022/04/28 12:21:50;;;;;;;3.70;1.33;;;;;;;;;;6258049;22;20071;-87
2022/04/28 12:24:18;;;;;;;1.98;0.50;;;;;;;;;;6257517;22;20100;-89
2022/04/28 12:26:47;;;;;;;1.05;0.45;;;;;;;;;;6234045;22;20073;-88
2022/04/28 12:29:14;;;;;;;1.48;1.15;;;;;;;;;;6260058;22;20016;-88
2022/04/28 12:31:41;;;;;;;4.47;1.55;;;;;;;;;;6260388;22;20058;-87
2022/04/28 12:34:11;;;;;;;1.05;0.75;;;;;;;;;;6259793;22;20049;-88
2022/04/28 12:36:44;;;;;;;6.63;1.52;;;;;;;;;;6259166;22;20019;-87
2022/04/28 12:39:12;;;;;;;4.70;1.80;;;;;;;;;;6259903;22;20019;-88
2022/04/28 12:41:42;;;;;;;6.05;2.08;;;;;;;;;;6285765;22;20463;-89
2022/04/28 12:44:10;;;;;;;8.05;2.65;;;;;;;;;;6259494;22;20021;-88
2022/04/28 12:46:43;;;;;;;15.43;3.70;;;;;;;;;;6258924;22;20019;-88
2022/04/28 12:49:10;;;;;;;10.73;3.30;;;;;;;;;;6259705;22;20022;-87
2022/04/28 12:52:03;;;;;;;10.45;2.50;;;;;;;;;;6258846;22;20061;-89
2022/04/28 12:54:36;;;;;;;1.27;0.88;;;;;;;;;;6253068;22;20015;-88
2022/04/28 12:57:06;;;;;;;18.60;3.45;;;;;;;;;;6259429;22;20120;-89
2022/04/28 12:59:33;;;;;;;9.23;2.90;;;;;;;;;;6259226;22;20047;-89
2022/04/28 13:01:59;;;;;;;7.60;2.47;;;;;;;;;;6258992;22;20094;-87
2022/04/28 13:04:26;;;;;;;5.70;2.30;;;;;;;;;;6259518;22;20011;-88
2022/04/28 13:06:53;;;;;;;2.75;1.38;;;;;;;;;;6286090;22;20012;-88
2022/04/28 13:09:20;;;;;;;2.28;1.27;;;;;;;;;;6259832;22;20015;-89
2022/04/28 13:11:47;;;;;;;9.98;2.92;;;;;;;;;;6285933;22;20015;-89
2022/04/28 13:14:17;;;;;;;7.63;2.22;;;;;;;;;;6259302;22;20094;-89
2022/04/28 13:16:44;;;;;;;12.25;3.03;;;;;;;;;;6258236;22;20011;-87
2022/04/28 13:19:11;;;;;;;9.52;2.67;;;;;;;;;;6258184;22;20448;-88
2022/04/28 13:21:39;;;;;;;6.85;2.47;;;;;;;;;;6257963;22;20019;-88
2022/04/28 13:24:05;;;;;;;12.07;3.28;;;;;;;;;;6259331;22;20019;-87
2022/04/28 13:26:31;;;;;;;1.58;0.82;;;;;;;;;;6258778;22;20081;-88
2022/04/28 13:28:57;;;;;;;7.82;2.45;;;;;;;;;;6258128;22;20404;-89
2022/04/28 13:31:24;;;;;;;8.23;2.08;;;;;;;;;;6257151;22;20080;-88
2022/04/28 13:33:51;;;;;;;8.63;3.15;;;;;;;;;;6256524;22;20046;-88
2022/04/28 13:36:17;;;;;;;11.93;2.92;;;;;;;;;;6256077;22;20060;-86
2022/04/28 13:38:45;;;;;;;6.03;2.83;;;;;;;;;;6256432;22;20102;-87
2022/04/28 13:41:11;;;;;;;11.82;3.22;;;;;;;;;;6257856;22;20019;-87
2022/04/28 13:43:38;;;;;;;6.90;2.40;;;;;;;;;;6258994;22;20444;-88
2022/04/28 13:46:05;;;;;;;11.32;2.60;;;;;;;;;;6257894;22;20023;-88
2022/04/28 13:48:31;;;;;;;8.48;2.85;;;;;;;;;;6258638;22;20019;-89
2022/04/28 13:50:59;;;;;;;5.53;2.40;;;;;;;;;;6257970;22;20030;-88
2022/04/28 13:53:28;;;;;;;12.68;2.55;;;;;;;;;;6258048;22;20022;-88
2022/04/28 13:55:58;;;;;;;1.20;0.52;;;;;;;;;;6283984;22;20047;-88
2022/04/28 13:58:25;;;;;;;6.20;2.00;;;;;;;;;;6259658;22;20531;-89
2022/04/28 14:00:52;;;;;;;15.80;3.17;;;;;;;;;;6259964;22;20022;-88
2022/04/28 14:03:22;;;;;;;6.30;2.05;;;;;;;;;;6259279;22;20022;-87
2022/04/28 14:05:51;;;;;;;3.60;1.00;;;;;;;;;;6259183;22;20026;-88
2022/04/28 14:08:17;;;;;;;5.72;1.30;;;;;;;;;;6258630;22;20019;-89
2022/04/28 14:10:46;;;;;;;5.75;1.92;;;;;;;;;;6259203;22;20011;-89
2022/04/28 14:13:12;;;;;;;5.13;2.17;;;;;;;;;;6258622;22;20019;-89
2022/04/28 14:15:43;;;;;;;7.20;2.42;;;;;;;;;;6285404;22;20038;-89
2022/04/28 14:18:09;;;;;;;4.95;1.08;;;;;;;;;;6259086;22;20022;-88
2022/04/28 14:20:35;;;;;;;4.32;1.42;;;;;;;;;;6284683;22;20015;-87
2022/04/28 14:23:04;;;;;;;7.50;2.08;;;;;;;;;;6285559;22;20015;-88
2022/04/28 14:25:30;;;;;;;10.32;3.10;;;;;;;;;;6258681;22;20055;-88
2022/04/28 14:27:56;;;;;;;7.13;4.15;;;;;;;;;;6258857;22;20075;-88
2022/04/28 14:30:25;;;;;;;8.73;3.25;;;;;;;;;;6258227;22;20448;-88
2022/04/28 14:32:51;;;;;;;8.60;2.70;;;;;;;;;;6258271;22;20199;-88
2022/04/28 14:35:19;;;;;;;7.95;1.92;;;;;;;;;;6258167;22;20090;-89
2022/04/28 14:37:45;;;;;;;15.35;3.00;;;;;;;;;;6283695;22;20102;-89
2022/04/28 14:40:13;;;;;;;2.72;1.30;;;;;;;;;;6258495;22;20067;-88
2022/04/28 14:42:43;;;;;;;4.18;0.90;;;;;;;;;;6283868;22;20019;-88
2022/04/28 14:45:09;;;;;;;0.30;0.30;;;;;;;;;;6257947;22;20015;-87
2022/04/28 14:47:36;;;;;;;6.53;2.10;;;;;;;;;;6257360;22;20019;-88
2022/04/28 14:52:47;;;;;;;;;;;;;;;;;;6284228;22;20515;-88
2022/04/28 14:55:13;;;;;;;10.52;2.95;;;;;;;;;;6258190;22;19911;-89
2022/04/28 14:57:40;;;;;;;3.47;2.03;;;;;;;;;;6257686;22;20022;-87
2022/04/28 15:00:09;;;;;;;9.20;2.53;;;;;;;;;;6257579;22;20046;-89
2022/04/28 15:02:35;;;;;;;7.68;2.80;;;;;;;;;;6232500;22;20160;-88
2022/04/28 15:05:02;;;;;;;14.52;2.92;;;;;;;;;;6257456;22;20054;-88
2022/04/28 15:07:28;;;;;;;6.95;2.42;;;;;;;;;;6257252;22;20019;-89
2022/04/28 15:09:56;;;;;;;5.93;1.60;;;;;;;;;;6257781;22;20011;-89
2022/04/28 15:12:23;;;;;;;5.40;2.17;;;;;;;;;;6257500;22;20033;-88
2022/04/28 15:14:52;;;;;;;1.95;1.23;;;;;;;;;;6257853;22;20019;-89
2022/04/28 15:17:18;;;;;;;12.13;1.27;;;;;;;;;;6282932;22;20059;-88
2022/04/28 15:19:44;;;;;;;12.45;3.13;;;;;;;;;;6256857;22;20011;-88
2022/04/28 15:22:10;;;;;;;2.50;1.63;;;;;;;;;;6259096;22;20066;-88